createdAt,value
2023-05-21T00:00:30.756Z,28.74
2023-05-21T00:01:30.785Z,28.74
2023-05-21T00:02:30.846Z,28.75
2023-05-21T00:03:30.949Z,28.71
2023-05-21T00:04:30.858Z,28.73
2023-05-21T00:05:30.886Z,28.74
2023-05-21T00:06:30.977Z,28.73
2023-05-21T00:07:30.943Z,28.71
2023-05-21T00:08:31.015Z,28.71
2023-05-21T00:09:31.880Z,28.70
2023-05-21T00:10:31.086Z,28.73
2023-05-21T00:11:31.110Z,28.73
2023-05-21T00:12:31.132Z,28.73
2023-05-21T00:13:31.201Z,28.70
2023-05-21T00:14:31.257Z,28.68
2023-05-21T00:15:31.287Z,28.71
2023-05-21T00:16:31.356Z,28.70
2023-05-21T00:17:31.407Z,28.68
2023-05-21T00:18:31.359Z,28.67
2023-05-21T00:19:31.504Z,28.68
2023-05-21T00:20:31.499Z,28.70
2023-05-21T00:21:31.483Z,28.70
2023-05-21T00:22:31.536Z,28.68
2023-05-21T00:23:31.565Z,28.66
2023-05-21T00:24:31.608Z,28.68
2023-05-21T00:25:31.696Z,28.68
2023-05-21T00:26:31.690Z,28.67
2023-05-21T00:27:31.743Z,28.70
2023-05-21T00:28:31.795Z,28.67
2023-05-21T00:29:31.816Z,28.67
2023-05-21T00:30:31.893Z,28.67
2023-05-21T00:31:31.906Z,28.66
2023-05-21T00:32:31.994Z,28.66
2023-05-21T00:33:31.976Z,28.64
2023-05-21T00:34:31.988Z,28.66
2023-05-21T00:35:32.065Z,28.67
2023-05-21T00:36:32.118Z,28.64
2023-05-21T00:37:32.136Z,28.63
2023-05-21T00:38:32.178Z,28.64
2023-05-21T00:39:32.247Z,28.64
2023-05-21T00:40:32.300Z,28.66
2023-05-21T00:41:32.341Z,28.64
2023-05-21T00:42:32.408Z,28.63
2023-05-21T00:43:32.431Z,28.64
2023-05-21T00:44:32.450Z,28.63
2023-05-21T00:45:32.565Z,28.63
2023-05-21T00:46:32.603Z,28.61
2023-05-21T00:47:32.695Z,28.61
2023-05-21T00:48:32.673Z,28.63
2023-05-21T00:49:32.718Z,28.61
2023-05-21T00:50:32.778Z,28.64
2023-05-21T00:51:32.830Z,28.64
2023-05-21T00:52:32.905Z,28.63
2023-05-21T00:53:32.915Z,28.61
2023-05-21T00:54:32.954Z,28.63
2023-05-21T00:55:33.017Z,28.63
2023-05-21T00:56:33.073Z,28.61
2023-05-21T00:57:33.073Z,28.63
2023-05-21T00:58:33.179Z,28.63
2023-05-21T00:59:33.176Z,28.61
2023-05-21T01:00:33.199Z,28.60
2023-05-21T01:01:33.327Z,28.58
2023-05-21T01:02:33.349Z,28.60
2023-05-21T01:03:33.417Z,28.61
2023-05-21T01:04:33.427Z,28.63
2023-05-21T01:05:33.629Z,28.58
2023-05-21T01:06:33.534Z,28.61
2023-05-21T01:07:33.626Z,28.58
2023-05-21T01:08:33.655Z,28.58
2023-05-21T01:09:34.370Z,28.60
2023-05-21T01:10:33.735Z,28.57
2023-05-21T01:11:33.788Z,28.57
2023-05-21T01:12:33.816Z,28.60
2023-05-21T01:13:33.904Z,28.56
2023-05-21T01:14:33.905Z,28.54
2023-05-21T01:15:34.134Z,28.56
2023-05-21T01:16:34.050Z,28.57
2023-05-21T01:17:34.313Z,28.57
2023-05-21T01:18:34.149Z,28.54
2023-05-21T01:19:34.217Z,28.56
2023-05-21T01:20:34.227Z,28.56
2023-05-21T01:21:34.312Z,28.54
2023-05-21T01:22:34.387Z,28.51
2023-05-21T01:23:34.423Z,28.54
2023-05-21T01:24:34.486Z,28.53
2023-05-21T01:25:34.689Z,28.53
2023-05-21T01:26:34.555Z,28.53
2023-05-21T01:27:34.609Z,28.54
2023-05-21T01:28:34.657Z,28.53
2023-05-21T01:29:34.714Z,28.51
2023-05-21T01:30:34.798Z,28.51
2023-05-21T01:31:34.819Z,28.53
2023-05-21T01:32:34.961Z,28.51
2023-05-21T01:33:35.050Z,28.53
2023-05-21T01:34:35.030Z,28.53
2023-05-21T01:35:35.220Z,28.51
2023-05-21T01:36:35.136Z,28.53
2023-05-21T01:37:35.162Z,28.51
2023-05-21T01:38:35.245Z,28.54
2023-05-21T01:39:35.341Z,28.50
2023-05-21T01:40:35.370Z,28.50
2023-05-21T01:41:35.361Z,28.51
2023-05-21T01:42:35.388Z,28.51
2023-05-21T01:43:35.463Z,28.50
2023-05-21T01:44:35.566Z,28.48
2023-05-21T01:45:35.762Z,28.48
2023-05-21T01:46:35.705Z,28.50
2023-05-21T01:47:35.686Z,28.50
2023-05-21T01:48:35.742Z,28.51
2023-05-21T01:49:35.831Z,28.48
2023-05-21T01:50:35.869Z,28.48
2023-05-21T01:51:35.891Z,28.48
2023-05-21T01:52:35.986Z,28.48
2023-05-21T01:53:36.010Z,28.47
2023-05-21T01:54:36.051Z,28.47
2023-05-21T01:55:36.448Z,28.47
2023-05-21T01:56:36.194Z,28.48
2023-05-21T01:57:36.251Z,28.50
2023-05-21T01:58:36.299Z,28.47
2023-05-21T01:59:36.306Z,28.47
2023-05-21T02:00:36.832Z,28.47
2023-05-21T02:01:36.406Z,28.44
2023-05-21T02:02:36.532Z,28.47
2023-05-21T02:03:36.688Z,28.44
2023-05-21T02:04:36.593Z,28.46
2023-05-21T02:05:36.786Z,28.44
2023-05-21T02:06:36.671Z,28.47
2023-05-21T02:07:36.769Z,28.44
2023-05-21T02:08:36.784Z,28.43
2023-05-21T02:09:36.830Z,28.43
2023-05-21T02:10:36.916Z,28.43
2023-05-21T02:11:37.005Z,28.44
2023-05-21T02:12:37.004Z,28.43
2023-05-21T02:13:37.037Z,28.46
2023-05-21T02:14:37.101Z,28.44
2023-05-21T02:15:37.265Z,28.43
2023-05-21T02:16:37.283Z,28.40
2023-05-21T02:17:37.278Z,28.42
2023-05-21T02:18:37.300Z,28.42
2023-05-21T02:19:37.410Z,28.43
2023-05-21T02:20:37.395Z,28.43
2023-05-21T02:21:37.584Z,28.40
2023-05-21T02:22:37.522Z,28.42
2023-05-21T02:23:37.592Z,28.40
2023-05-21T02:24:37.631Z,28.42
2023-05-21T02:25:37.830Z,28.40
2023-05-21T02:26:37.723Z,28.42
2023-05-21T02:27:37.807Z,28.40
2023-05-21T02:28:37.820Z,28.42
2023-05-21T02:29:37.879Z,28.40
2023-05-21T02:30:37.968Z,28.42
2023-05-21T02:31:37.974Z,28.39
2023-05-21T02:32:38.046Z,28.42
2023-05-21T02:33:38.103Z,28.39
2023-05-21T02:34:38.124Z,28.39
2023-05-21T02:35:38.331Z,28.39
2023-05-21T02:36:38.243Z,28.42
2023-05-21T02:37:38.314Z,28.40
2023-05-21T02:38:38.373Z,28.37
2023-05-21T02:39:38.419Z,28.39
2023-05-21T02:40:38.424Z,28.37
2023-05-21T02:41:38.498Z,28.39
2023-05-21T02:42:38.545Z,28.39
2023-05-21T02:43:38.618Z,28.37
2023-05-21T02:44:38.663Z,28.37
2023-05-21T02:45:38.857Z,28.37
2023-05-21T02:46:38.791Z,28.36
2023-05-21T02:47:38.964Z,28.36
2023-05-21T02:48:38.901Z,28.37
2023-05-21T02:49:38.902Z,28.36
2023-05-21T02:50:38.959Z,28.35
2023-05-21T02:51:39.033Z,28.36
2023-05-21T02:52:39.061Z,28.33
2023-05-21T02:53:39.136Z,28.35
2023-05-21T02:54:39.167Z,28.36
2023-05-21T02:55:39.383Z,28.33
2023-05-21T02:56:39.291Z,28.33
2023-05-21T02:57:39.307Z,28.33
2023-05-21T02:58:39.414Z,28.35
2023-05-21T02:59:39.472Z,28.35
2023-05-21T03:00:39.529Z,28.30
2023-05-21T03:01:39.632Z,28.33
2023-05-21T03:02:39.732Z,28.33
2023-05-21T03:03:39.708Z,28.33
2023-05-21T03:04:39.711Z,28.32
2023-05-21T03:05:39.820Z,28.28
2023-05-21T03:06:39.881Z,28.30
2023-05-21T03:07:39.946Z,28.33
2023-05-21T03:08:39.998Z,28.28
2023-05-21T03:09:40.029Z,28.30
2023-05-21T03:10:40.063Z,28.32
2023-05-21T03:11:40.089Z,28.28
2023-05-21T03:12:40.176Z,28.30
2023-05-21T03:13:40.233Z,28.30
2023-05-21T03:14:40.291Z,28.30
2023-05-21T03:15:40.329Z,28.28
2023-05-21T03:16:40.446Z,28.30
2023-05-21T03:17:40.511Z,28.28
2023-05-21T03:18:40.515Z,28.27
2023-05-21T03:19:40.584Z,28.28
2023-05-21T03:20:40.655Z,28.28
2023-05-21T03:21:40.695Z,28.27
2023-05-21T03:22:40.763Z,28.28
2023-05-21T03:23:40.831Z,28.28
2023-05-21T03:24:40.868Z,28.28
2023-05-21T03:25:40.903Z,28.28
2023-05-21T03:26:41.002Z,28.27
2023-05-21T03:27:41.101Z,28.28
2023-05-21T03:28:41.112Z,28.26
2023-05-21T03:29:41.220Z,28.27
2023-05-21T03:30:41.223Z,28.27
2023-05-21T03:31:41.318Z,28.23
2023-05-21T03:32:41.461Z,28.27
2023-05-21T03:33:41.456Z,28.28
2023-05-21T03:34:41.454Z,28.30
2023-05-21T03:35:41.527Z,28.26
2023-05-21T03:36:41.574Z,28.27
2023-05-21T03:37:41.673Z,28.27
2023-05-21T03:38:41.688Z,28.26
2023-05-21T03:39:41.783Z,28.27
2023-05-21T03:40:41.799Z,28.23
2023-05-21T03:41:41.913Z,28.27
2023-05-21T03:42:41.973Z,28.26
2023-05-21T03:43:42.003Z,28.26
2023-05-21T03:44:42.034Z,28.27
2023-05-21T03:45:44.307Z,28.27
2023-05-21T03:46:42.410Z,28.27
2023-05-21T03:47:42.386Z,28.27
2023-05-21T03:48:42.405Z,28.28
2023-05-21T03:49:42.408Z,28.27
2023-05-21T03:50:42.472Z,28.28
2023-05-21T03:51:42.593Z,28.27
2023-05-21T03:52:42.668Z,28.26
2023-05-21T03:53:42.712Z,28.24
2023-05-21T03:54:42.764Z,28.26
2023-05-21T03:55:42.830Z,28.26
2023-05-21T03:56:42.878Z,28.24
2023-05-21T03:57:42.908Z,28.24
2023-05-21T03:58:42.980Z,28.26
2023-05-21T03:59:43.057Z,28.26
2023-05-21T04:00:43.120Z,28.26
2023-05-21T04:01:43.128Z,28.26
2023-05-21T04:02:43.540Z,28.27
2023-05-21T04:03:43.411Z,28.24
2023-05-21T04:04:43.362Z,28.23
2023-05-21T04:05:43.351Z,28.26
2023-05-21T04:06:43.414Z,28.24
2023-05-21T04:07:43.448Z,28.27
2023-05-21T04:08:43.542Z,28.24
2023-05-21T04:09:43.583Z,28.24
2023-05-21T04:10:43.652Z,28.27
2023-05-21T04:11:43.692Z,28.24
2023-05-21T04:12:43.761Z,28.26
2023-05-21T04:13:43.804Z,28.24
2023-05-21T04:14:43.820Z,28.26
2023-05-21T04:15:43.936Z,28.28
2023-05-21T04:16:43.937Z,28.28
2023-05-21T04:17:44.038Z,28.28
2023-05-21T04:18:45.545Z,28.27
2023-05-21T04:19:44.124Z,28.32
2023-05-21T04:20:44.162Z,28.30
2023-05-21T04:21:44.214Z,28.28
2023-05-21T04:22:44.278Z,28.28
2023-05-21T04:23:44.403Z,28.30
2023-05-21T04:24:44.392Z,28.28
2023-05-21T04:25:44.476Z,28.28
2023-05-21T04:26:44.564Z,28.30
2023-05-21T04:27:44.625Z,28.28
2023-05-21T04:28:44.632Z,28.28
2023-05-21T04:29:44.736Z,28.28
2023-05-21T04:30:44.763Z,28.32
2023-05-21T04:31:44.876Z,28.30
2023-05-21T04:32:44.925Z,28.30
2023-05-21T04:33:44.957Z,28.30
2023-05-21T04:34:45.031Z,28.28
2023-05-21T04:35:45.087Z,28.30
2023-05-21T04:36:45.144Z,28.32
2023-05-21T04:37:45.200Z,28.33
2023-05-21T04:38:45.305Z,28.33
2023-05-21T04:39:45.317Z,28.35
2023-05-21T04:40:45.368Z,28.35
2023-05-21T04:41:45.444Z,28.35
2023-05-21T04:42:45.541Z,28.33
2023-05-21T04:43:45.593Z,28.35
2023-05-21T04:44:45.656Z,28.39
2023-05-21T04:45:45.706Z,28.39
2023-05-21T04:46:45.797Z,28.39
2023-05-21T04:47:45.818Z,28.40
2023-05-21T04:48:45.848Z,28.37
2023-05-21T04:49:45.950Z,28.42
2023-05-21T04:50:45.981Z,28.40
2023-05-21T04:51:46.021Z,28.40
2023-05-21T04:52:46.083Z,28.43
2023-05-21T04:53:46.136Z,28.44
2023-05-21T04:54:46.185Z,28.44
2023-05-21T04:55:46.249Z,28.46
2023-05-21T04:56:46.306Z,28.46
2023-05-21T04:57:46.344Z,28.46
2023-05-21T04:58:46.446Z,28.47
2023-05-21T04:59:46.437Z,28.48
2023-05-21T05:00:46.505Z,28.48
2023-05-21T05:01:46.551Z,28.50
2023-05-21T05:02:46.680Z,28.51
2023-05-21T05:03:46.644Z,28.51
2023-05-21T05:04:46.676Z,28.51
2023-05-21T05:05:46.729Z,28.53
2023-05-21T05:06:46.793Z,28.51
2023-05-21T05:07:46.843Z,28.53
2023-05-21T05:08:46.907Z,28.53
2023-05-21T05:09:46.929Z,28.54
2023-05-21T05:10:46.980Z,28.58
2023-05-21T05:11:47.062Z,28.56
2023-05-21T05:12:47.113Z,28.57
2023-05-21T05:13:47.146Z,28.58
2023-05-21T05:14:47.206Z,28.60
2023-05-21T05:15:49.603Z,28.63
2023-05-21T05:16:47.332Z,28.64
2023-05-21T05:17:47.261Z,28.64
2023-05-21T05:18:47.264Z,28.63
2023-05-21T05:19:47.228Z,28.66
2023-05-21T05:20:47.234Z,28.64
2023-05-21T05:21:47.203Z,28.64
2023-05-21T05:22:47.206Z,28.67
2023-05-21T05:23:47.204Z,28.67
2023-05-21T05:24:47.222Z,28.68
2023-05-21T05:25:47.238Z,28.68
2023-05-21T05:26:47.180Z,28.68
2023-05-21T05:27:47.190Z,28.70
2023-05-21T05:28:47.200Z,28.71
2023-05-21T05:29:47.149Z,28.71
2023-05-21T05:30:47.169Z,28.71
2023-05-21T05:31:47.115Z,28.74
2023-05-21T05:32:47.257Z,28.75
2023-05-21T05:33:47.179Z,28.77
2023-05-21T05:34:47.106Z,28.77
2023-05-21T05:35:47.149Z,28.77
2023-05-21T05:36:47.140Z,28.77
2023-05-21T05:37:47.145Z,28.78
2023-05-21T05:38:47.109Z,28.79
2023-05-21T05:39:47.106Z,28.81
2023-05-21T05:40:47.084Z,28.81
2023-05-21T05:41:47.100Z,28.81
2023-05-21T05:42:47.091Z,28.81
2023-05-21T05:43:47.068Z,28.82
2023-05-21T05:44:47.124Z,28.82
2023-05-21T05:45:47.049Z,28.84
2023-05-21T05:46:47.110Z,28.82
2023-05-21T05:47:47.116Z,28.86
2023-05-21T05:48:47.077Z,28.86
2023-05-21T05:49:47.075Z,28.87
2023-05-21T05:50:47.149Z,28.90
2023-05-21T05:51:47.014Z,28.91
2023-05-21T05:52:47.088Z,28.90
2023-05-21T05:53:47.025Z,28.91
2023-05-21T05:54:47.004Z,28.94
2023-05-21T05:55:46.979Z,28.95
2023-05-21T05:56:46.979Z,28.97
2023-05-21T05:57:47.026Z,29.02
2023-05-21T05:58:47.036Z,29.05
2023-05-21T05:59:46.999Z,29.08
2023-05-21T06:00:46.945Z,29.12
2023-05-21T06:01:46.949Z,29.15
2023-05-21T06:02:47.022Z,29.17
2023-05-21T06:03:47.021Z,29.21
2023-05-21T06:04:46.914Z,29.22
2023-05-21T06:05:46.977Z,29.28
2023-05-21T06:06:46.950Z,29.29
2023-05-21T06:07:46.923Z,29.32
2023-05-21T06:08:46.923Z,29.36
2023-05-21T06:09:46.927Z,29.40
2023-05-21T06:10:46.919Z,29.44
2023-05-21T06:11:46.904Z,29.46
2023-05-21T06:12:46.923Z,29.49
2023-05-21T06:13:46.931Z,29.55
2023-05-21T06:14:46.934Z,29.59
2023-05-21T06:15:46.968Z,29.63
2023-05-21T06:16:46.929Z,29.68
2023-05-21T06:17:47.021Z,29.69
2023-05-21T06:18:47.012Z,29.72
2023-05-21T06:19:46.980Z,29.72
2023-05-21T06:20:47.074Z,29.75
2023-05-21T06:21:47.038Z,29.76
2023-05-21T06:22:47.093Z,29.79
2023-05-21T06:23:47.103Z,29.80
2023-05-21T06:24:47.163Z,29.84
2023-05-21T06:25:47.113Z,29.86
2023-05-21T06:26:47.324Z,29.86
2023-05-21T06:27:47.239Z,29.90
2023-05-21T06:28:47.223Z,29.87
2023-05-21T06:29:47.330Z,29.89
2023-05-21T06:30:47.259Z,29.96
2023-05-21T06:31:47.350Z,30.00
2023-05-21T06:32:47.515Z,30.01
2023-05-21T06:33:47.522Z,30.03
2023-05-21T06:34:47.425Z,30.06
2023-05-21T06:35:47.418Z,30.04
2023-05-21T06:36:47.417Z,30.10
2023-05-21T06:37:47.412Z,30.10
2023-05-21T06:38:47.406Z,30.11
2023-05-21T06:39:47.402Z,30.10
2023-05-21T06:40:47.410Z,30.11
2023-05-21T06:41:47.461Z,30.10
2023-05-21T06:42:47.556Z,30.11
2023-05-21T06:43:47.483Z,30.10
2023-05-21T06:44:47.490Z,30.11
2023-05-21T06:45:47.512Z,30.13
2023-05-21T06:46:47.496Z,30.11
2023-05-21T06:47:47.601Z,30.16
2023-05-21T06:48:47.532Z,30.17
2023-05-21T06:49:47.575Z,30.16
2023-05-21T06:50:47.572Z,30.17
2023-05-21T06:51:47.618Z,30.19
2023-05-21T06:52:47.631Z,30.19
2023-05-21T06:53:47.687Z,30.20
2023-05-21T06:54:47.715Z,30.23
2023-05-21T06:55:47.808Z,30.24
2023-05-21T06:56:47.831Z,30.21
2023-05-21T06:57:47.847Z,30.23
2023-05-21T06:58:47.951Z,30.21
2023-05-21T06:59:47.944Z,30.23
2023-05-21T07:00:47.977Z,30.21
2023-05-21T07:01:48.077Z,30.24
2023-05-21T07:02:48.152Z,30.23
2023-05-21T07:03:48.255Z,30.27
2023-05-21T07:04:48.225Z,30.26
2023-05-21T07:05:48.293Z,30.26
2023-05-21T07:06:48.308Z,30.27
2023-05-21T07:07:48.428Z,30.31
2023-05-21T07:08:48.457Z,30.35
2023-05-21T07:09:48.533Z,30.34
2023-05-21T07:10:48.547Z,30.38
2023-05-21T07:11:48.607Z,30.38
2023-05-21T07:12:48.718Z,30.41
2023-05-21T07:13:48.701Z,30.41
2023-05-21T07:14:48.730Z,30.41
2023-05-21T07:15:48.805Z,30.45
2023-05-21T07:16:48.935Z,30.45
2023-05-21T07:17:48.930Z,30.47
2023-05-21T07:18:48.956Z,30.50
2023-05-21T07:19:49.009Z,30.51
2023-05-21T07:20:49.055Z,30.52
2023-05-21T07:21:49.121Z,30.55
2023-05-21T07:22:49.131Z,30.58
2023-05-21T07:23:49.236Z,30.60
2023-05-21T07:24:49.240Z,30.61
2023-05-21T07:25:49.252Z,30.61
2023-05-21T07:26:49.297Z,30.64
2023-05-21T07:27:49.360Z,30.70
2023-05-21T07:28:49.618Z,30.72
2023-05-21T07:29:49.416Z,30.75
2023-05-21T07:30:49.543Z,30.78
2023-05-21T07:31:49.486Z,30.82
2023-05-21T07:32:49.585Z,30.85
2023-05-21T07:33:49.546Z,30.91
2023-05-21T07:34:49.621Z,30.92
2023-05-21T07:35:49.627Z,30.96
2023-05-21T07:36:49.629Z,30.98
2023-05-21T07:37:49.707Z,31.02
2023-05-21T07:38:49.650Z,31.05
2023-05-21T07:39:49.681Z,31.06
2023-05-21T07:40:49.792Z,31.09
2023-05-21T07:41:49.716Z,31.11
2023-05-21T07:42:49.694Z,31.11
2023-05-21T07:43:49.912Z,31.15
2023-05-21T07:44:49.696Z,31.18
2023-05-21T07:45:49.863Z,31.19
2023-05-21T07:46:49.832Z,31.21
2023-05-21T07:47:49.826Z,31.23
2023-05-21T07:48:49.751Z,31.26
2023-05-21T07:49:49.764Z,31.26
2023-05-21T07:50:49.752Z,31.29
2023-05-21T07:51:49.771Z,31.32
2023-05-21T07:52:49.811Z,31.35
2023-05-21T07:53:49.782Z,31.35
2023-05-21T07:54:49.797Z,31.36
2023-05-21T07:55:49.788Z,31.40
2023-05-21T07:56:49.826Z,31.43
2023-05-21T07:57:49.882Z,31.46
2023-05-21T07:58:49.915Z,31.46
2023-05-21T07:59:49.990Z,31.50
2023-05-21T08:00:50.053Z,31.52
2023-05-21T08:01:50.161Z,31.53
2023-05-21T08:02:50.321Z,31.54
2023-05-21T08:03:50.407Z,31.54
2023-05-21T08:04:50.399Z,31.56
2023-05-21T08:05:50.340Z,31.57
2023-05-21T08:06:50.400Z,31.57
2023-05-21T08:07:50.512Z,31.56
2023-05-21T08:08:50.570Z,31.56
2023-05-21T08:09:50.629Z,31.60
2023-05-21T08:10:50.685Z,31.59
2023-05-21T08:11:50.753Z,31.57
2023-05-21T08:12:50.799Z,31.62
2023-05-21T08:13:50.834Z,31.62
2023-05-21T08:14:50.869Z,31.65
2023-05-21T08:15:52.906Z,31.66
2023-05-21T08:16:51.091Z,31.69
2023-05-21T08:17:51.098Z,31.73
2023-05-21T08:18:51.156Z,31.72
2023-05-21T08:19:51.162Z,31.76
2023-05-21T08:20:51.193Z,31.77
2023-05-21T08:21:52.813Z,31.81
2023-05-21T08:22:51.283Z,31.81
2023-05-21T08:23:51.290Z,31.83
2023-05-21T08:24:51.345Z,31.88
2023-05-21T08:25:51.347Z,31.88
2023-05-21T08:26:51.363Z,31.91
2023-05-21T08:27:52.447Z,31.96
2023-05-21T08:28:51.428Z,31.96
2023-05-21T08:29:51.431Z,32.00
2023-05-21T08:30:51.448Z,32.01
2023-05-21T08:31:51.496Z,32.04
2023-05-21T08:32:51.516Z,32.04
2023-05-21T08:33:51.465Z,32.07
2023-05-21T08:34:51.458Z,32.10
2023-05-21T08:35:51.475Z,32.10
2023-05-21T08:36:51.469Z,32.10
2023-05-21T08:37:51.489Z,32.14
2023-05-21T08:38:51.491Z,32.14
2023-05-21T08:39:51.500Z,32.17
2023-05-21T08:40:51.467Z,32.17
2023-05-21T08:41:51.520Z,32.17
2023-05-21T08:42:51.554Z,32.18
2023-05-21T08:43:53.498Z,32.17
2023-05-21T08:44:51.465Z,32.20
2023-05-21T08:45:51.482Z,32.20
2023-05-21T08:46:51.475Z,32.20
2023-05-21T08:47:51.506Z,32.21
2023-05-21T08:48:51.473Z,32.21
2023-05-21T08:49:51.469Z,32.21
2023-05-21T08:50:51.479Z,32.23
2023-05-21T08:51:51.431Z,32.20
2023-05-21T08:52:51.442Z,32.20
2023-05-21T08:53:51.434Z,32.18
2023-05-21T08:54:51.483Z,32.21
2023-05-21T08:55:51.735Z,32.23
2023-05-21T08:56:51.408Z,32.21
2023-05-21T08:57:51.376Z,32.20
2023-05-21T08:58:51.419Z,32.20
2023-05-21T08:59:51.383Z,32.18
2023-05-21T09:00:51.429Z,32.17
2023-05-21T09:01:51.410Z,32.20
2023-05-21T09:02:51.430Z,32.17
2023-05-21T09:03:51.385Z,32.17
2023-05-21T09:04:51.367Z,32.16
2023-05-21T09:05:51.375Z,32.14
2023-05-21T09:06:51.376Z,32.16
2023-05-21T09:07:52.505Z,32.14
2023-05-21T09:08:51.403Z,32.14
2023-05-21T09:09:51.335Z,32.17
2023-05-21T09:10:51.352Z,32.14
2023-05-21T09:11:51.332Z,32.16
2023-05-21T09:12:51.325Z,32.14
2023-05-21T09:13:51.280Z,32.14
2023-05-21T09:14:51.342Z,32.13
2023-05-21T09:15:51.336Z,32.13
2023-05-21T09:16:51.302Z,32.16
2023-05-21T09:17:51.322Z,32.14
2023-05-21T09:18:51.324Z,32.18
2023-05-21T09:19:51.261Z,32.14
2023-05-21T09:20:51.272Z,32.16
2023-05-21T09:21:51.267Z,32.14
2023-05-21T09:22:51.279Z,32.16
2023-05-21T09:23:51.294Z,32.16
2023-05-21T09:24:51.246Z,32.13
2023-05-21T09:25:51.239Z,32.14
2023-05-21T09:26:51.218Z,32.13
2023-05-21T09:27:51.211Z,32.13
2023-05-21T09:28:51.332Z,32.14
2023-05-21T09:29:51.329Z,32.16
2023-05-21T09:30:51.387Z,32.14
2023-05-21T09:31:51.570Z,32.16
2023-05-21T09:32:51.588Z,32.17
2023-05-21T09:33:51.558Z,32.18
2023-05-21T09:34:51.607Z,32.17
2023-05-21T09:35:51.685Z,32.18
2023-05-21T09:36:51.779Z,32.18
2023-05-21T09:37:51.856Z,32.21
2023-05-21T09:38:52.088Z,32.20
2023-05-21T09:39:51.946Z,32.20
2023-05-21T09:40:52.002Z,32.20
2023-05-21T09:41:52.090Z,32.21
2023-05-21T09:42:52.145Z,32.23
2023-05-21T09:43:52.190Z,32.24
2023-05-21T09:44:52.259Z,32.27
2023-05-21T09:45:52.475Z,32.24
2023-05-21T09:46:52.510Z,32.28
2023-05-21T09:47:52.550Z,32.28
2023-05-21T09:48:52.519Z,32.28
2023-05-21T09:49:52.594Z,32.30
2023-05-21T09:50:52.653Z,32.30
2023-05-21T09:51:52.718Z,32.31
2023-05-21T09:52:52.782Z,32.28
2023-05-21T09:53:52.849Z,32.31
2023-05-21T09:54:52.917Z,32.30
2023-05-21T09:55:52.921Z,32.28
2023-05-21T09:56:52.982Z,32.31
2023-05-21T09:57:53.101Z,32.31
2023-05-21T09:58:53.159Z,32.30
2023-05-21T09:59:53.161Z,32.30
2023-05-21T10:00:53.222Z,32.31
2023-05-21T10:01:53.342Z,32.31
2023-05-21T10:02:53.388Z,32.30
2023-05-21T10:03:53.429Z,32.28
2023-05-21T10:04:53.562Z,32.27
2023-05-21T10:05:53.526Z,32.28
2023-05-21T10:06:53.614Z,32.25
2023-05-21T10:07:53.583Z,32.25
2023-05-21T10:08:53.622Z,32.25
2023-05-21T10:09:53.738Z,32.25
2023-05-21T10:10:53.771Z,32.25
2023-05-21T10:11:53.837Z,32.27
2023-05-21T10:12:53.855Z,32.27
2023-05-21T10:13:53.899Z,32.27
2023-05-21T10:14:53.979Z,32.30
2023-05-21T10:15:54.031Z,32.28
2023-05-21T10:16:54.091Z,32.28
2023-05-21T10:17:54.219Z,32.30
2023-05-21T10:18:54.195Z,32.27
2023-05-21T10:19:54.199Z,32.31
2023-05-21T10:20:54.371Z,32.31
2023-05-21T10:21:54.265Z,32.34
2023-05-21T10:22:54.297Z,32.31
2023-05-21T10:23:54.385Z,32.38
2023-05-21T10:24:54.433Z,32.37
2023-05-21T10:25:54.469Z,32.35
2023-05-21T10:26:54.775Z,32.37
2023-05-21T10:27:54.514Z,32.38
2023-05-21T10:28:54.583Z,32.39
2023-05-21T10:29:54.613Z,32.39
2023-05-21T10:30:54.646Z,32.41
2023-05-21T10:31:54.654Z,32.42
2023-05-21T10:32:54.842Z,32.42
2023-05-21T10:33:54.775Z,32.45
2023-05-21T10:34:54.738Z,32.45
2023-05-21T10:35:54.760Z,32.45
2023-05-21T10:36:54.846Z,32.50
2023-05-21T10:37:54.932Z,32.48
2023-05-21T10:38:54.847Z,32.50
2023-05-21T10:39:54.900Z,32.51
2023-05-21T10:40:54.960Z,32.50
2023-05-21T10:41:56.392Z,32.51
2023-05-21T10:42:55.019Z,32.54
2023-05-21T10:43:54.974Z,32.54
2023-05-21T10:44:54.962Z,32.54
2023-05-21T10:45:55.013Z,32.54
2023-05-21T10:46:54.951Z,32.55
2023-05-21T10:47:54.998Z,32.57
2023-05-21T10:48:54.877Z,32.59
2023-05-21T10:49:54.933Z,32.57
2023-05-21T10:50:54.876Z,32.57
2023-05-21T10:51:55.049Z,32.54
2023-05-21T10:52:54.904Z,32.54
2023-05-21T10:53:54.882Z,32.54
2023-05-21T10:54:54.894Z,32.54
2023-05-21T10:55:54.886Z,32.54
2023-05-21T10:56:54.892Z,32.57
2023-05-21T10:57:54.900Z,32.58
2023-05-21T10:58:54.875Z,32.57
2023-05-21T10:59:54.863Z,32.58
2023-05-21T11:00:54.903Z,32.54
2023-05-21T11:01:54.843Z,32.57
2023-05-21T11:02:54.955Z,32.61
2023-05-21T11:03:54.878Z,32.59
2023-05-21T11:04:54.833Z,32.57
2023-05-21T11:05:54.841Z,32.59
2023-05-21T11:06:54.793Z,32.58
2023-05-21T11:07:54.851Z,32.62
2023-05-21T11:08:55.721Z,32.61
2023-05-21T11:09:54.825Z,32.59
2023-05-21T11:10:54.836Z,32.62
2023-05-21T11:11:54.854Z,32.62
2023-05-21T11:12:54.833Z,32.62
2023-05-21T11:13:55.648Z,32.65
2023-05-21T11:14:54.730Z,32.68
2023-05-21T11:15:54.797Z,32.68
2023-05-21T11:16:54.829Z,32.71
2023-05-21T11:17:54.797Z,32.71
2023-05-21T11:18:54.737Z,32.72
2023-05-21T11:19:54.728Z,32.74
2023-05-21T11:20:55.664Z,32.72
2023-05-21T11:21:54.715Z,32.72
2023-05-21T11:22:54.698Z,32.75
2023-05-21T11:23:54.703Z,32.76
2023-05-21T11:24:54.700Z,32.78
2023-05-21T11:25:54.699Z,32.75
2023-05-21T11:26:54.711Z,32.83
2023-05-21T11:27:54.775Z,32.79
2023-05-21T11:28:54.685Z,32.82
2023-05-21T11:29:54.669Z,32.85
2023-05-21T11:30:54.741Z,32.83
2023-05-21T11:31:54.650Z,32.82
2023-05-21T11:32:54.654Z,32.86
2023-05-21T11:33:54.636Z,32.85
2023-05-21T11:34:54.606Z,32.86
2023-05-21T11:35:54.631Z,32.85
2023-05-21T11:36:54.615Z,32.86
2023-05-21T11:37:54.584Z,32.86
2023-05-21T11:38:54.605Z,32.88
2023-05-21T11:39:54.622Z,32.89
2023-05-21T11:40:54.596Z,32.89
2023-05-21T11:41:54.589Z,32.90
2023-05-21T11:42:54.592Z,32.90
2023-05-21T11:43:54.560Z,32.92
2023-05-21T11:44:54.580Z,32.90
2023-05-21T11:45:54.544Z,32.94
2023-05-21T11:46:54.633Z,32.92
2023-05-21T11:47:54.619Z,32.95
2023-05-21T11:48:54.591Z,32.94
2023-05-21T11:49:54.531Z,32.94
2023-05-21T11:50:54.561Z,32.96
2023-05-21T11:51:54.533Z,32.98
2023-05-21T11:52:54.547Z,33.01
2023-05-21T11:53:54.529Z,32.99
2023-05-21T11:54:54.514Z,33.01
2023-05-21T11:55:54.508Z,32.99
2023-05-21T11:56:54.484Z,32.99
2023-05-21T11:57:54.487Z,33.01
2023-05-21T11:58:54.486Z,32.96
2023-05-21T11:59:54.470Z,32.96
2023-05-21T12:00:54.477Z,32.95
2023-05-21T12:01:54.465Z,32.96
2023-05-21T12:02:54.618Z,32.95
2023-05-21T12:03:54.475Z,32.95
2023-05-21T12:04:54.446Z,32.96
2023-05-21T12:05:54.471Z,32.95
2023-05-21T12:06:54.437Z,32.95
2023-05-21T12:07:54.436Z,32.95
2023-05-21T12:08:54.422Z,32.95
2023-05-21T12:09:54.379Z,32.95
2023-05-21T12:10:54.411Z,32.96
2023-05-21T12:11:54.432Z,32.98
2023-05-21T12:12:56.418Z,32.96
2023-05-21T12:13:54.400Z,32.95
2023-05-21T12:14:54.395Z,32.95
2023-05-21T12:15:54.393Z,32.98
2023-05-21T12:16:54.390Z,32.99
2023-05-21T12:17:54.479Z,33.01
2023-05-21T12:18:54.400Z,33.01
2023-05-21T12:19:54.335Z,33.05
2023-05-21T12:20:54.356Z,33.04
2023-05-21T12:21:54.336Z,33.08
2023-05-21T12:22:54.420Z,33.08
2023-05-21T12:23:54.329Z,33.08
2023-05-21T12:24:54.364Z,33.09
2023-05-21T12:25:54.318Z,33.12
2023-05-21T12:26:54.282Z,33.13
2023-05-21T12:27:54.262Z,33.12
2023-05-21T12:28:54.291Z,33.13
2023-05-21T12:29:54.596Z,33.15
2023-05-21T12:30:54.262Z,33.18
2023-05-21T12:31:54.345Z,33.16
2023-05-21T12:32:54.365Z,33.16
2023-05-21T12:33:54.273Z,33.19
2023-05-21T12:34:54.232Z,33.19
2023-05-21T12:35:54.437Z,33.16
2023-05-21T12:36:54.269Z,33.16
2023-05-21T12:37:54.213Z,33.19
2023-05-21T12:38:54.218Z,33.19
2023-05-21T12:39:54.222Z,33.22
2023-05-21T12:40:54.222Z,33.20
2023-05-21T12:41:54.202Z,33.22
2023-05-21T12:42:54.166Z,33.26
2023-05-21T12:43:54.180Z,33.26
2023-05-21T12:44:54.188Z,33.25
2023-05-21T12:45:54.176Z,33.28
2023-05-21T12:46:54.152Z,33.28
2023-05-21T12:47:54.204Z,33.28
2023-05-21T12:48:54.149Z,33.26
2023-05-21T12:49:55.307Z,33.25
2023-05-21T12:50:54.117Z,33.29
2023-05-21T12:51:54.131Z,33.30
2023-05-21T12:52:54.160Z,33.32